sensor_id;sensor_type;location;lat;lon;timestamp;pressure;altitude;pressure_sealevel;temperature;humidity
27984;BME280;15317;50.360;8.726;2023-04-23T00:03:09;98732.41;;;11.95;100.00
27984;BME280;15317;50.360;8.726;2023-04-23T00:08:17;98731.09;;;11.91;100.00
27984;BME280;15317;50.360;8.726;2023-04-23T00:13:22;98735.53;;;11.92;100.00
27984;BME280;15317;50.360;8.726;2023-04-23T00:18:25;98727.53;;;11.90;100.00
27984;BME280;15317;50.360;8.726;2023-04-23T00:23:30;98733.84;;;11.91;100.00
27984;BME280;15317;50.360;8.726;2023-04-23T00:28:34;98730.25;;;11.90;100.00
27984;BME280;15317;50.360;8.726;2023-04-23T00:33:37;98737.47;;;11.83;100.00
27984;BME280;15317;50.360;8.726;2023-04-23T00:38:40;98724.91;;;11.82;100.00
27984;BME280;15317;50.360;8.726;2023-04-23T00:43:45;98729.72;;;11.80;100.00
27984;BME280;15317;50.360;8.726;2023-04-23T00:48:49;98733.63;;;11.77;100.00
27984;BME280;15317;50.360;8.726;2023-04-23T00:53:54;98725.81;;;11.74;100.00
27984;BME280;15317;50.360;8.726;2023-04-23T00:58:59;98730.06;;;11.77;100.00
27984;BME280;15317;50.360;8.726;2023-04-23T01:04:04;98730.44;;;11.74;100.00
27984;BME280;15317;50.360;8.726;2023-04-23T01:09:08;98728.06;;;11.71;100.00
27984;BME280;15317;50.360;8.726;2023-04-23T01:14:12;98729.09;;;11.70;100.00
27984;BME280;15317;50.360;8.726;2023-04-23T01:19:16;98734.25;;;11.65;100.00
27984;BME280;15317;50.360;8.726;2023-04-23T01:24:20;98729.81;;;11.64;100.00
27984;BME280;15317;50.360;8.726;2023-04-23T01:29:24;98743.78;;;11.61;100.00
27984;BME280;15317;50.360;8.726;2023-04-23T01:34:28;98742.75;;;11.62;100.00
27984;BME280;15317;50.360;8.726;2023-04-23T01:39:33;98747.19;;;11.63;100.00
27984;BME280;15317;50.360;8.726;2023-04-23T01:44:38;98757.38;;;11.61;100.00
27984;BME280;15317;50.360;8.726;2023-04-23T01:49:42;98755.41;;;11.55;100.00
27984;BME280;15317;50.360;8.726;2023-04-23T01:54:46;98750.69;;;11.48;100.00
27984;BME280;15317;50.360;8.726;2023-04-23T01:59:50;98758.75;;;11.42;100.00
27984;BME280;15317;50.360;8.726;2023-04-23T02:04:53;98750.97;;;11.39;100.00
27984;BME280;15317;50.360;8.726;2023-04-23T02:09:59;98750.78;;;11.40;100.00
27984;BME280;15317;50.360;8.726;2023-04-23T02:15:05;98760.63;;;11.41;100.00
27984;BME280;15317;50.360;8.726;2023-04-23T02:20:09;98763.50;;;11.40;100.00
27984;BME280;15317;50.360;8.726;2023-04-23T02:25:14;98763.06;;;11.36;100.00
27984;BME280;15317;50.360;8.726;2023-04-23T02:30:18;98771.56;;;11.33;100.00
27984;BME280;15317;50.360;8.726;2023-04-23T02:35:22;98770.25;;;11.29;100.00
27984;BME280;15317;50.360;8.726;2023-04-23T02:40:27;98771.66;;;11.25;100.00
27984;BME280;15317;50.360;8.726;2023-04-23T02:45:30;98769.94;;;11.24;100.00
27984;BME280;15317;50.360;8.726;2023-04-23T02:50:33;98770.06;;;11.08;100.00
27984;BME280;15317;50.360;8.726;2023-04-23T02:55:37;98780.47;;;11.04;100.00
27984;BME280;15317;50.360;8.726;2023-04-23T03:00:40;98770.06;;;11.08;100.00
27984;BME280;15317;50.360;8.726;2023-04-23T03:05:44;98778.22;;;11.08;100.00
27984;BME280;15317;50.360;8.726;2023-04-23T03:10:48;98772.09;;;11.06;100.00
27984;BME280;15317;50.360;8.726;2023-04-23T03:15:51;98780.75;;;11.09;100.00
27984;BME280;15317;50.360;8.726;2023-04-23T03:20:56;98788.06;;;11.09;100.00
27984;BME280;15317;50.360;8.726;2023-04-23T03:26:00;98786.00;;;11.11;100.00
27984;BME280;15317;50.360;8.726;2023-04-23T03:31:03;98786.66;;;11.13;100.00
27984;BME280;15317;50.360;8.726;2023-04-23T03:36:07;98790.59;;;11.11;100.00
27984;BME280;15317;50.360;8.726;2023-04-23T03:41:11;98776.34;;;11.08;100.00
27984;BME280;15317;50.360;8.726;2023-04-23T03:46:14;98785.34;;;11.09;100.00
27984;BME280;15317;50.360;8.726;2023-04-23T03:51:17;98787.22;;;11.08;100.00
27984;BME280;15317;50.360;8.726;2023-04-23T03:56:22;98782.13;;;11.05;100.00
27984;BME280;15317;50.360;8.726;2023-04-23T04:01:28;98795.91;;;11.04;100.00
27984;BME280;15317;50.360;8.726;2023-04-23T04:06:33;98791.84;;;11.00;100.00
27984;BME280;15317;50.360;8.726;2023-04-23T04:11:37;98785.25;;;10.94;100.00
27984;BME280;15317;50.360;8.726;2023-04-23T04:16:41;98797.53;;;10.90;100.00
27984;BME280;15317;50.360;8.726;2023-04-23T04:21:45;98799.09;;;10.85;100.00
27984;BME280;15317;50.360;8.726;2023-04-23T04:26:50;98794.47;;;10.85;100.00
27984;BME280;15317;50.360;8.726;2023-04-23T04:31:54;98787.03;;;10.79;100.00
27984;BME280;15317;50.360;8.726;2023-04-23T04:36:58;98796.75;;;10.74;100.00
27984;BME280;15317;50.360;8.726;2023-04-23T04:42:03;98796.63;;;10.67;100.00
27984;BME280;15317;50.360;8.726;2023-04-23T04:47:07;98796.31;;;10.62;100.00
27984;BME280;15317;50.360;8.726;2023-04-23T04:52:10;98804.00;;;10.50;100.00
27984;BME280;15317;50.360;8.726;2023-04-23T04:57:15;98799.94;;;10.46;100.00
27984;BME280;15317;50.360;8.726;2023-04-23T05:02:18;98798.75;;;10.49;100.00
27984;BME280;15317;50.360;8.726;2023-04-23T05:07:23;98806.50;;;10.60;100.00
27984;BME280;15317;50.360;8.726;2023-04-23T05:12:27;98813.94;;;10.66;100.00
27984;BME280;15317;50.360;8.726;2023-04-23T05:17:30;98808.97;;;10.78;100.00
27984;BME280;15317;50.360;8.726;2023-04-23T05:22:33;98811.31;;;10.81;100.00
27984;BME280;15317;50.360;8.726;2023-04-23T05:27:38;98811.44;;;10.87;100.00
27984;BME280;15317;50.360;8.726;2023-04-23T05:32:42;98802.75;;;10.92;100.00
27984;BME280;15317;50.360;8.726;2023-04-23T05:37:45;98800.00;;;11.00;100.00
27984;BME280;15317;50.360;8.726;2023-04-23T05:42:50;98812.88;;;11.06;100.00
27984;BME280;15317;50.360;8.726;2023-04-23T05:47:53;98817.91;;;11.17;100.00
27984;BME280;15317;50.360;8.726;2023-04-23T05:52:56;98818.81;;;11.32;100.00
27984;BME280;15317;50.360;8.726;2023-04-23T05:58:01;98821.84;;;11.37;100.00
27984;BME280;15317;50.360;8.726;2023-04-23T06:03:06;98826.72;;;11.42;100.00
27984;BME280;15317;50.360;8.726;2023-04-23T06:08:09;98831.81;;;11.45;100.00
27984;BME280;15317;50.360;8.726;2023-04-23T06:13:13;98830.84;;;11.38;100.00
27984;BME280;15317;50.360;8.726;2023-04-23T06:18:16;98825.59;;;11.36;100.00
27984;BME280;15317;50.360;8.726;2023-04-23T06:23:20;98822.50;;;11.39;100.00
27984;BME280;15317;50.360;8.726;2023-04-23T06:28:24;98830.13;;;11.44;100.00
27984;BME280;15317;50.360;8.726;2023-04-23T06:33:27;98807.69;;;11.42;100.00
27984;BME280;15317;50.360;8.726;2023-04-23T06:38:30;98805.47;;;11.45;100.00
27984;BME280;15317;50.360;8.726;2023-04-23T06:43:35;98802.50;;;11.78;100.00
27984;BME280;15317;50.360;8.726;2023-04-23T06:48:38;98798.16;;;12.21;100.00
27984;BME280;15317;50.360;8.726;2023-04-23T06:53:41;98790.03;;;12.57;100.00
27984;BME280;15317;50.360;8.726;2023-04-23T06:58:45;98801.25;;;12.62;100.00
27984;BME280;15317;50.360;8.726;2023-04-23T07:03:48;98800.91;;;12.86;100.00
27984;BME280;15317;50.360;8.726;2023-04-23T07:08:55;98792.06;;;12.84;100.00
27984;BME280;15317;50.360;8.726;2023-04-23T07:13:59;98788.53;;;13.05;100.00
27984;BME280;15317;50.360;8.726;2023-04-23T07:19:03;98783.28;;;13.89;100.00
27984;BME280;15317;50.360;8.726;2023-04-23T07:24:06;98791.28;;;14.87;100.00
27984;BME280;15317;50.360;8.726;2023-04-23T07:29:11;98778.44;;;15.81;98.92
27984;BME280;15317;50.360;8.726;2023-04-23T07:34:15;98770.59;;;16.37;97.62
27984;BME280;15317;50.360;8.726;2023-04-23T07:39:18;98777.91;;;16.70;84.90
27984;BME280;15317;50.360;8.726;2023-04-23T07:44:23;98768.03;;;17.07;81.84
27984;BME280;15317;50.360;8.726;2023-04-23T07:49:26;98756.25;;;17.69;83.58
27984;BME280;15317;50.360;8.726;2023-04-23T07:54:29;98768.59;;;17.85;77.62
27984;BME280;15317;50.360;8.726;2023-04-23T07:59:34;98769.31;;;17.73;74.24
27984;BME280;15317;50.360;8.726;2023-04-23T08:04:37;98784.50;;;17.76;76.05
27984;BME280;15317;50.360;8.726;2023-04-23T08:09:40;98760.66;;;17.95;76.18
27984;BME280;15317;50.360;8.726;2023-04-23T08:14:45;98763.53;;;18.06;75.39
27984;BME280;15317;50.360;8.726;2023-04-23T08:19:48;98756.69;;;18.15;75.45
27984;BME280;15317;50.360;8.726;2023-04-23T08:24:51;98758.91;;;18.07;71.72
27984;BME280;15317;50.360;8.726;2023-04-23T08:29:56;98756.69;;;18.59;72.95
27984;BME280;15317;50.360;8.726;2023-04-23T08:34:59;98743.91;;;18.64;66.89
27984;BME280;15317;50.360;8.726;2023-04-23T08:40:02;98754.34;;;19.10;72.46
27984;BME280;15317;50.360;8.726;2023-04-23T08:45:09;98757.50;;;19.25;66.45
27984;BME280;15317;50.360;8.726;2023-04-23T08:50:14;98750.59;;;19.05;65.60
27984;BME280;15317;50.360;8.726;2023-04-23T08:55:19;98762.97;;;19.14;65.44
27984;BME280;15317;50.360;8.726;2023-04-23T09:00:25;98748.81;;;18.80;61.55
27984;BME280;15317;50.360;8.726;2023-04-23T09:05:29;98742.75;;;18.53;65.21
27984;BME280;15317;50.360;8.726;2023-04-23T09:10:35;98748.34;;;19.73;62.46
27984;BME280;15317;50.360;8.726;2023-04-23T09:15:40;98758.25;;;20.39;60.53
27984;BME280;15317;50.360;8.726;2023-04-23T09:20:45;98740.53;;;19.58;59.95
27984;BME280;15317;50.360;8.726;2023-04-23T09:25:48;98761.69;;;19.99;61.25
27984;BME280;15317;50.360;8.726;2023-04-23T10:34:41;98697.19;;;20.59;53.03
27984;BME280;15317;50.360;8.726;2023-04-23T10:39:48;98694.53;;;20.64;53.86
27984;BME280;15317;50.360;8.726;2023-04-23T10:44:55;98690.69;;;20.65;53.97
27984;BME280;15317;50.360;8.726;2023-04-23T10:50:20;98691.38;;;20.72;52.94
27984;BME280;15317;50.360;8.726;2023-04-23T10:55:25;98685.13;;;20.76;52.11
27984;BME280;15317;50.360;8.726;2023-04-23T11:00:43;98676.94;;;20.06;53.89
27984;BME280;15317;50.360;8.726;2023-04-23T11:05:48;98673.94;;;19.50;52.76
27984;BME280;15317;50.360;8.726;2023-04-23T11:10:54;98678.19;;;19.34;58.21
27984;BME280;15317;50.360;8.726;2023-04-23T11:16:14;98668.75;;;19.42;57.16
27984;BME280;15317;50.360;8.726;2023-04-23T11:21:21;98667.38;;;19.74;54.08
27984;BME280;15317;50.360;8.726;2023-04-23T11:26:26;98660.69;;;18.50;56.95
27984;BME280;15317;50.360;8.726;2023-04-23T11:31:32;98654.00;;;18.10;61.34
27984;BME280;15317;50.360;8.726;2023-04-23T11:36:37;98657.75;;;18.15;59.43
27984;BME280;15317;50.360;8.726;2023-04-23T11:41:41;98640.28;;;17.42;61.16
27984;BME280;15317;50.360;8.726;2023-04-23T11:46:47;98629.75;;;17.64;63.24
27984;BME280;15317;50.360;8.726;2023-04-23T11:51:52;98628.78;;;17.76;61.12
27984;BME280;15317;50.360;8.726;2023-04-23T11:56:56;98621.94;;;18.22;57.98
27984;BME280;15317;50.360;8.726;2023-04-23T12:02:02;98608.81;;;18.06;58.43
27984;BME280;15317;50.360;8.726;2023-04-23T12:07:08;98602.72;;;18.04;60.32
27984;BME280;15317;50.360;8.726;2023-04-23T12:12:32;98606.06;;;18.24;61.77
27984;BME280;15317;50.360;8.726;2023-04-23T12:17:36;98606.94;;;18.36;60.23
27984;BME280;15317;50.360;8.726;2023-04-23T12:22:42;98606.22;;;18.77;53.12
27984;BME280;15317;50.360;8.726;2023-04-23T12:27:45;98600.81;;;18.04;57.81
27984;BME280;15317;50.360;8.726;2023-04-23T12:32:48;98599.16;;;17.60;58.04
27984;BME280;15317;50.360;8.726;2023-04-23T12:37:54;98590.59;;;17.25;59.85
27984;BME280;15317;50.360;8.726;2023-04-23T12:42:57;98579.13;;;16.85;62.38
27984;BME280;15317;50.360;8.726;2023-04-23T12:48:01;98571.03;;;18.20;58.59
27984;BME280;15317;50.360;8.726;2023-04-23T12:53:06;98581.09;;;18.74;53.13
27984;BME280;15317;50.360;8.726;2023-04-23T12:58:10;98566.59;;;19.31;50.19
27984;BME280;15317;50.360;8.726;2023-04-23T13:03:14;98554.19;;;20.16;52.80
27984;BME280;15317;50.360;8.726;2023-04-23T13:08:19;98552.81;;;21.15;49.70
27984;BME280;15317;50.360;8.726;2023-04-23T13:13:23;98541.16;;;20.51;48.20
27984;BME280;15317;50.360;8.726;2023-04-23T13:18:26;98527.66;;;20.38;53.68
27984;BME280;15317;50.360;8.726;2023-04-23T13:23:31;98511.03;;;20.33;52.55
27984;BME280;15317;50.360;8.726;2023-04-23T13:28:34;98504.59;;;20.72;49.98
27984;BME280;15317;50.360;8.726;2023-04-23T13:33:38;98500.03;;;20.49;51.67
27984;BME280;15317;50.360;8.726;2023-04-23T13:38:43;98484.38;;;21.00;52.71
27984;BME280;15317;50.360;8.726;2023-04-23T13:43:46;98484.44;;;20.88;48.74
27984;BME280;15317;50.360;8.726;2023-04-23T13:48:51;98458.63;;;20.21;54.17
27984;BME280;15317;50.360;8.726;2023-04-23T13:53:56;98460.88;;;20.81;50.70
27984;BME280;15317;50.360;8.726;2023-04-23T13:59:00;98453.41;;;20.65;52.19
27984;BME280;15317;50.360;8.726;2023-04-23T14:04:20;98450.22;;;20.56;52.18
27984;BME280;15317;50.360;8.726;2023-04-23T14:09:26;98435.94;;;20.59;50.73
27984;BME280;15317;50.360;8.726;2023-04-23T14:14:31;98435.75;;;20.21;54.25
27984;BME280;15317;50.360;8.726;2023-04-23T14:19:34;98428.75;;;19.73;53.63
27984;BME280;15317;50.360;8.726;2023-04-23T14:24:45;98422.22;;;20.19;49.39
27984;BME280;15317;50.360;8.726;2023-04-23T14:29:50;98412.25;;;20.63;53.49
27984;BME280;15317;50.360;8.726;2023-04-23T14:34:58;98394.47;;;20.71;51.01
27984;BME280;15317;50.360;8.726;2023-04-23T14:40:03;98385.84;;;20.34;49.00
27984;BME280;15317;50.360;8.726;2023-04-23T14:45:07;98365.38;;;20.01;50.22
27984;BME280;15317;50.360;8.726;2023-04-23T14:50:11;98358.84;;;20.36;50.26
27984;BME280;15317;50.360;8.726;2023-04-23T14:55:15;98360.41;;;20.32;48.32
27984;BME280;15317;50.360;8.726;2023-04-23T15:00:18;98343.84;;;19.98;48.69
27984;BME280;15317;50.360;8.726;2023-04-23T15:05:23;98336.97;;;20.01;49.21
27984;BME280;15317;50.360;8.726;2023-04-23T15:10:28;98327.28;;;19.42;48.91
27984;BME280;15317;50.360;8.726;2023-04-23T15:15:41;98331.63;;;19.38;49.08
27984;BME280;15317;50.360;8.726;2023-04-23T15:20:46;98332.84;;;19.30;45.96
27984;BME280;15317;50.360;8.726;2023-04-23T15:25:51;98322.63;;;19.02;44.10
27984;BME280;15317;50.360;8.726;2023-04-23T15:30:54;98313.31;;;18.80;44.08
27984;BME280;15317;50.360;8.726;2023-04-23T15:35:57;98307.34;;;18.83;45.19
27984;BME280;15317;50.360;8.726;2023-04-23T15:41:02;98296.91;;;18.85;46.16
27984;BME280;15317;50.360;8.726;2023-04-23T15:46:05;98296.47;;;18.76;45.29
27984;BME280;15317;50.360;8.726;2023-04-23T15:51:08;98282.94;;;18.51;46.10
27984;BME280;15317;50.360;8.726;2023-04-23T15:56:13;98284.97;;;18.44;47.38
27984;BME280;15317;50.360;8.726;2023-04-23T16:01:16;98280.19;;;18.51;46.27
27984;BME280;15317;50.360;8.726;2023-04-23T16:06:19;98274.69;;;18.63;45.89
27984;BME280;15317;50.360;8.726;2023-04-23T16:11:23;98257.84;;;18.60;48.45
27984;BME280;15317;50.360;8.726;2023-04-23T16:16:28;98263.19;;;18.43;49.70
27984;BME280;15317;50.360;8.726;2023-04-23T16:21:31;98253.66;;;18.22;47.52
27984;BME280;15317;50.360;8.726;2023-04-23T16:26:36;98250.41;;;18.02;49.34
27984;BME280;15317;50.360;8.726;2023-04-23T16:31:39;98243.13;;;17.96;49.12
27984;BME280;15317;50.360;8.726;2023-04-23T16:36:42;98243.94;;;17.73;49.30
27984;BME280;15317;50.360;8.726;2023-04-23T16:41:47;98241.75;;;17.63;50.83
27984;BME280;15317;50.360;8.726;2023-04-23T16:46:52;98230.34;;;17.48;51.20
27984;BME280;15317;50.360;8.726;2023-04-23T16:51:55;98238.53;;;17.25;52.30
27984;BME280;15317;50.360;8.726;2023-04-23T16:56:59;98249.69;;;17.12;54.61
27984;BME280;15317;50.360;8.726;2023-04-23T17:02:02;98255.19;;;16.93;54.24
27984;BME280;15317;50.360;8.726;2023-04-23T17:07:08;98297.88;;;16.71;60.53
27984;BME280;15317;50.360;8.726;2023-04-23T17:12:13;98310.94;;;15.70;70.05
27984;BME280;15317;50.360;8.726;2023-04-23T17:17:16;98319.81;;;14.70;89.34
27984;BME280;15317;50.360;8.726;2023-04-23T17:22:20;98288.41;;;13.95;100.00
27984;BME280;15317;50.360;8.726;2023-04-23T17:27:24;98267.81;;;13.59;100.00
27984;BME280;15317;50.360;8.726;2023-04-23T17:32:27;98271.38;;;13.47;100.00
27984;BME280;15317;50.360;8.726;2023-04-23T17:37:30;98266.75;;;13.34;100.00
27984;BME280;15317;50.360;8.726;2023-04-23T17:42:36;98263.81;;;13.29;100.00
27984;BME280;15317;50.360;8.726;2023-04-23T17:47:39;98257.28;;;13.23;100.00
27984;BME280;15317;50.360;8.726;2023-04-23T17:52:43;98240.28;;;13.21;100.00
27984;BME280;15317;50.360;8.726;2023-04-23T17:57:47;98248.28;;;13.23;100.00
27984;BME280;15317;50.360;8.726;2023-04-23T18:02:51;98247.00;;;13.19;100.00
27984;BME280;15317;50.360;8.726;2023-04-23T18:07:54;98254.31;;;13.18;100.00
27984;BME280;15317;50.360;8.726;2023-04-23T18:13:01;98255.31;;;13.11;100.00
27984;BME280;15317;50.360;8.726;2023-04-23T18:18:04;98251.13;;;13.01;100.00
27984;BME280;15317;50.360;8.726;2023-04-23T18:23:08;98247.09;;;12.91;100.00
27984;BME280;15317;50.360;8.726;2023-04-23T18:28:12;98259.81;;;12.77;100.00
27984;BME280;15317;50.360;8.726;2023-04-23T18:33:27;98267.34;;;12.62;100.00
27984;BME280;15317;50.360;8.726;2023-04-23T18:38:36;98272.31;;;12.58;100.00
27984;BME280;15317;50.360;8.726;2023-04-23T18:43:42;98274.13;;;12.45;100.00
27984;BME280;15317;50.360;8.726;2023-04-23T18:48:50;98269.00;;;12.28;100.00
27984;BME280;15317;50.360;8.726;2023-04-23T18:53:53;98258.53;;;12.25;100.00
27984;BME280;15317;50.360;8.726;2023-04-23T18:58:58;98253.25;;;12.17;100.00
27984;BME280;15317;50.360;8.726;2023-04-23T19:04:01;98268.94;;;12.15;100.00
27984;BME280;15317;50.360;8.726;2023-04-23T19:09:04;98279.78;;;12.09;100.00
27984;BME280;15317;50.360;8.726;2023-04-23T19:14:09;98282.25;;;12.04;100.00
27984;BME280;15317;50.360;8.726;2023-04-23T19:19:12;98279.25;;;11.92;100.00
27984;BME280;15317;50.360;8.726;2023-04-23T19:24:15;98289.91;;;11.87;100.00
27984;BME280;15317;50.360;8.726;2023-04-23T19:29:20;98280.63;;;11.81;100.00
27984;BME280;15317;50.360;8.726;2023-04-23T19:34:25;98293.78;;;11.78;100.00
27984;BME280;15317;50.360;8.726;2023-04-23T19:39:28;98294.84;;;11.62;100.00
27984;BME280;15317;50.360;8.726;2023-04-23T19:44:33;98285.56;;;11.50;100.00
27984;BME280;15317;50.360;8.726;2023-04-23T19:49:36;98283.44;;;11.45;100.00
27984;BME280;15317;50.360;8.726;2023-04-23T19:54:39;98288.44;;;11.27;100.00
27984;BME280;15317;50.360;8.726;2023-04-23T19:59:45;98283.59;;;11.23;100.00
27984;BME280;15317;50.360;8.726;2023-04-23T20:04:48;98278.47;;;11.13;100.00
27984;BME280;15317;50.360;8.726;2023-04-23T20:09:51;98277.97;;;11.03;100.00
27984;BME280;15317;50.360;8.726;2023-04-23T20:14:56;98291.28;;;10.98;100.00
27984;BME280;15317;50.360;8.726;2023-04-23T20:19:59;98283.31;;;10.96;100.00
27984;BME280;15317;50.360;8.726;2023-04-23T20:25:07;98285.84;;;10.98;100.00
27984;BME280;15317;50.360;8.726;2023-04-23T20:30:13;98281.94;;;10.86;100.00
27984;BME280;15317;50.360;8.726;2023-04-23T20:35:17;98287.75;;;10.83;100.00
27984;BME280;15317;50.360;8.726;2023-04-23T20:40:20;98291.88;;;10.79;100.00
27984;BME280;15317;50.360;8.726;2023-04-23T20:45:25;98296.47;;;10.78;100.00
27984;BME280;15317;50.360;8.726;2023-04-23T20:50:28;98289.81;;;10.81;100.00
27984;BME280;15317;50.360;8.726;2023-04-23T20:55:31;98283.00;;;10.85;100.00
27984;BME280;15317;50.360;8.726;2023-04-23T21:00:36;98278.84;;;10.89;100.00
27984;BME280;15317;50.360;8.726;2023-04-23T21:05:39;98278.66;;;10.90;100.00
27984;BME280;15317;50.360;8.726;2023-04-23T21:10:45;98279.69;;;10.89;100.00
27984;BME280;15317;50.360;8.726;2023-04-23T21:15:49;98287.00;;;10.89;100.00
27984;BME280;15317;50.360;8.726;2023-04-23T21:20:52;98282.22;;;10.91;100.00
27984;BME280;15317;50.360;8.726;2023-04-23T21:25:56;98269.84;;;10.88;100.00
27984;BME280;15317;50.360;8.726;2023-04-23T21:31:06;98279.50;;;10.91;100.00
27984;BME280;15317;50.360;8.726;2023-04-23T21:36:11;98273.41;;;10.89;100.00
27984;BME280;15317;50.360;8.726;2023-04-23T21:41:14;98287.66;;;10.91;100.00
27984;BME280;15317;50.360;8.726;2023-04-23T21:46:18;98284.00;;;10.84;100.00
27984;BME280;15317;50.360;8.726;2023-04-23T21:51:21;98289.16;;;10.79;100.00
27984;BME280;15317;50.360;8.726;2023-04-23T21:56:25;98287.69;;;10.76;100.00
27984;BME280;15317;50.360;8.726;2023-04-23T22:01:30;98289.75;;;10.74;100.00
27984;BME280;15317;50.360;8.726;2023-04-23T22:06:37;98290.50;;;10.68;100.00
27984;BME280;15317;50.360;8.726;2023-04-23T22:11:40;98288.81;;;10.67;100.00
27984;BME280;15317;50.360;8.726;2023-04-23T22:17:03;98295.09;;;10.67;100.00
27984;BME280;15317;50.360;8.726;2023-04-23T22:22:08;98289.56;;;10.76;100.00
27984;BME280;15317;50.360;8.726;2023-04-23T22:27:11;98285.41;;;10.80;100.00
27984;BME280;15317;50.360;8.726;2023-04-23T22:32:16;98283.63;;;10.87;100.00
27984;BME280;15317;50.360;8.726;2023-04-23T22:37:19;98282.78;;;10.86;100.00
27984;BME280;15317;50.360;8.726;2023-04-23T22:42:22;98279.88;;;10.88;100.00
27984;BME280;15317;50.360;8.726;2023-04-23T22:47:27;98270.94;;;10.94;100.00
27984;BME280;15317;50.360;8.726;2023-04-23T22:52:30;98260.69;;;10.89;100.00
27984;BME280;15317;50.360;8.726;2023-04-23T22:57:33;98252.19;;;10.78;100.00
27984;BME280;15317;50.360;8.726;2023-04-23T23:02:38;98254.63;;;10.73;100.00
27984;BME280;15317;50.360;8.726;2023-04-23T23:07:42;98255.13;;;10.61;100.00
27984;BME280;15317;50.360;8.726;2023-04-23T23:12:45;98255.63;;;10.50;100.00
27984;BME280;15317;50.360;8.726;2023-04-23T23:17:49;98261.41;;;10.47;100.00
27984;BME280;15317;50.360;8.726;2023-04-23T23:22:52;98250.03;;;10.37;100.00
27984;BME280;15317;50.360;8.726;2023-04-23T23:27:56;98244.97;;;10.34;100.00
27984;BME280;15317;50.360;8.726;2023-04-23T23:33:00;98242.34;;;10.26;100.00
27984;BME280;15317;50.360;8.726;2023-04-23T23:38:03;98243.56;;;10.23;100.00
27984;BME280;15317;50.360;8.726;2023-04-23T23:43:06;98237.00;;;10.18;100.00
27984;BME280;15317;50.360;8.726;2023-04-23T23:48:11;98242.13;;;10.13;100.00
27984;BME280;15317;50.360;8.726;2023-04-23T23:53:14;98245.84;;;10.12;100.00
27984;BME280;15317;50.360;8.726;2023-04-23T23:58:17;98245.22;;;10.10;100.00
